sensor_id;sensor_type;location;lat;lon;timestamp;P1;durP1;ratioP1;P2;durP2;ratioP2
59824;SDS011;45703;50.898;6.054;2022-12-01T00:02:21;29.17;;;13.68;;
59824;SDS011;45703;50.898;6.054;2022-12-01T00:04:46;29.27;;;12.95;;
59824;SDS011;45703;50.898;6.054;2022-12-01T00:07:12;29.25;;;13.32;;
59824;SDS011;45703;50.898;6.054;2022-12-01T00:09:37;30.38;;;13.27;;
59824;SDS011;45703;50.898;6.054;2022-12-01T00:12:21;29.52;;;14.05;;
59824;SDS011;45703;50.898;6.054;2022-12-01T00:14:47;30.48;;;15.45;;
59824;SDS011;45703;50.898;6.054;2022-12-01T00:17:18;29.52;;;14.30;;
59824;SDS011;45703;50.898;6.054;2022-12-01T00:19:47;27.75;;;14.07;;
59824;SDS011;45703;50.898;6.054;2022-12-01T00:22:12;28.73;;;14.65;;
59824;SDS011;45703;50.898;6.054;2022-12-01T00:24:37;28.35;;;14.10;;
59824;SDS011;45703;50.898;6.054;2022-12-01T00:27:03;32.75;;;15.25;;
59824;SDS011;45703;50.898;6.054;2022-12-01T00:29:29;26.40;;;12.48;;
59824;SDS011;45703;50.898;6.054;2022-12-01T00:31:54;31.70;;;14.02;;
59824;SDS011;45703;50.898;6.054;2022-12-01T00:34:23;31.48;;;15.35;;
59824;SDS011;45703;50.898;6.054;2022-12-01T00:36:49;27.13;;;13.82;;
59824;SDS011;45703;50.898;6.054;2022-12-01T00:39:15;28.35;;;14.90;;
59824;SDS011;45703;50.898;6.054;2022-12-01T00:41:41;29.73;;;14.23;;
59824;SDS011;45703;50.898;6.054;2022-12-01T00:44:06;29.70;;;15.05;;
59824;SDS011;45703;50.898;6.054;2022-12-01T00:46:31;32.42;;;15.15;;
59824;SDS011;45703;50.898;6.054;2022-12-01T00:48:57;37.15;;;16.83;;
59824;SDS011;45703;50.898;6.054;2022-12-01T00:51:22;30.85;;;15.20;;
59824;SDS011;45703;50.898;6.054;2022-12-01T00:53:48;31.63;;;14.35;;
59824;SDS011;45703;50.898;6.054;2022-12-01T00:56:13;29.27;;;13.85;;
59824;SDS011;45703;50.898;6.054;2022-12-01T00:58:39;31.08;;;14.95;;
59824;SDS011;45703;50.898;6.054;2022-12-01T01:01:04;33.13;;;16.05;;
59824;SDS011;45703;50.898;6.054;2022-12-01T01:03:30;30.42;;;14.85;;
59824;SDS011;45703;50.898;6.054;2022-12-01T01:06:01;32.95;;;14.88;;
59824;SDS011;45703;50.898;6.054;2022-12-01T01:08:32;34.08;;;15.25;;
59824;SDS011;45703;50.898;6.054;2022-12-01T01:10:58;31.65;;;13.85;;
59824;SDS011;45703;50.898;6.054;2022-12-01T01:13:25;34.58;;;15.73;;
59824;SDS011;45703;50.898;6.054;2022-12-01T01:16:01;32.50;;;15.57;;
59824;SDS011;45703;50.898;6.054;2022-12-01T01:18:28;31.98;;;14.88;;
59824;SDS011;45703;50.898;6.054;2022-12-01T01:21:02;35.92;;;16.05;;
59824;SDS011;45703;50.898;6.054;2022-12-01T01:23:29;33.60;;;15.90;;
59824;SDS011;45703;50.898;6.054;2022-12-01T01:26:09;29.08;;;14.63;;
59824;SDS011;45703;50.898;6.054;2022-12-01T01:28:56;34.37;;;15.87;;
59824;SDS011;45703;50.898;6.054;2022-12-01T01:31:25;30.40;;;14.68;;
59824;SDS011;45703;50.898;6.054;2022-12-01T01:33:51;29.65;;;15.02;;
59824;SDS011;45703;50.898;6.054;2022-12-01T01:36:17;33.78;;;16.48;;
59824;SDS011;45703;50.898;6.054;2022-12-01T01:38:43;33.90;;;16.02;;
59824;SDS011;45703;50.898;6.054;2022-12-01T01:41:09;31.83;;;15.30;;
59824;SDS011;45703;50.898;6.054;2022-12-01T01:43:37;31.70;;;15.25;;
59824;SDS011;45703;50.898;6.054;2022-12-01T01:46:03;29.75;;;14.55;;
59824;SDS011;45703;50.898;6.054;2022-12-01T01:48:30;30.65;;;15.05;;
59824;SDS011;45703;50.898;6.054;2022-12-01T01:50:56;35.38;;;16.42;;
59824;SDS011;45703;50.898;6.054;2022-12-01T01:53:22;35.22;;;15.73;;
59824;SDS011;45703;50.898;6.054;2022-12-01T01:55:47;33.75;;;15.25;;
59824;SDS011;45703;50.898;6.054;2022-12-01T01:58:13;36.20;;;15.70;;
59824;SDS011;45703;50.898;6.054;2022-12-01T02:00:39;32.97;;;15.32;;
59824;SDS011;45703;50.898;6.054;2022-12-01T02:03:08;29.70;;;14.98;;
59824;SDS011;45703;50.898;6.054;2022-12-01T02:05:36;37.10;;;16.63;;
59824;SDS011;45703;50.898;6.054;2022-12-01T02:08:03;32.03;;;14.57;;
59824;SDS011;45703;50.898;6.054;2022-12-01T02:13:17;36.85;;;16.13;;
59824;SDS011;45703;50.898;6.054;2022-12-01T02:15:50;39.47;;;17.40;;
59824;SDS011;45703;50.898;6.054;2022-12-01T02:21:22;31.08;;;15.80;;
59824;SDS011;45703;50.898;6.054;2022-12-01T02:37:44;39.75;;;17.92;;
59824;SDS011;45703;50.898;6.054;2022-12-01T02:40:33;37.20;;;17.35;;
59824;SDS011;45703;50.898;6.054;2022-12-01T02:45:59;40.33;;;16.30;;
59824;SDS011;45703;50.898;6.054;2022-12-01T02:48:34;37.72;;;16.80;;
59824;SDS011;45703;50.898;6.054;2022-12-01T02:51:06;37.10;;;17.40;;
59824;SDS011;45703;50.898;6.054;2022-12-01T02:53:37;41.80;;;17.73;;
59824;SDS011;45703;50.898;6.054;2022-12-01T02:56:05;42.47;;;17.85;;
59824;SDS011;45703;50.898;6.054;2022-12-01T02:58:33;39.92;;;18.13;;
59824;SDS011;45703;50.898;6.054;2022-12-01T03:01:05;44.65;;;19.85;;
59824;SDS011;45703;50.898;6.054;2022-12-01T03:06:57;43.17;;;15.93;;
59824;SDS011;45703;50.898;6.054;2022-12-01T03:09:40;40.90;;;17.90;;
59824;SDS011;45703;50.898;6.054;2022-12-01T03:12:22;46.45;;;18.38;;
59824;SDS011;45703;50.898;6.054;2022-12-01T03:15:00;40.63;;;18.58;;
59824;SDS011;45703;50.898;6.054;2022-12-01T03:17:28;42.30;;;19.05;;
59824;SDS011;45703;50.898;6.054;2022-12-01T03:20:41;41.15;;;18.13;;
59824;SDS011;45703;50.898;6.054;2022-12-01T03:23:07;42.03;;;18.05;;
59824;SDS011;45703;50.898;6.054;2022-12-01T03:25:36;37.08;;;16.25;;
59824;SDS011;45703;50.898;6.054;2022-12-01T03:28:05;43.33;;;18.27;;
59824;SDS011;45703;50.898;6.054;2022-12-01T03:30:33;44.05;;;19.33;;
59824;SDS011;45703;50.898;6.054;2022-12-01T03:33:05;42.65;;;19.17;;
59824;SDS011;45703;50.898;6.054;2022-12-01T03:35:38;43.50;;;19.30;;
59824;SDS011;45703;50.898;6.054;2022-12-01T03:38:26;48.83;;;20.05;;
59824;SDS011;45703;50.898;6.054;2022-12-01T03:40:55;42.38;;;18.80;;
59824;SDS011;45703;50.898;6.054;2022-12-01T03:43:29;39.75;;;18.45;;
59824;SDS011;45703;50.898;6.054;2022-12-01T03:46:02;47.50;;;18.27;;
59824;SDS011;45703;50.898;6.054;2022-12-01T03:48:33;44.08;;;19.92;;
59824;SDS011;45703;50.898;6.054;2022-12-01T03:53:38;41.85;;;18.77;;
59824;SDS011;45703;50.898;6.054;2022-12-01T03:56:09;44.90;;;20.10;;
59824;SDS011;45703;50.898;6.054;2022-12-01T03:58:39;41.78;;;19.80;;
59824;SDS011;45703;50.898;6.054;2022-12-01T04:01:08;43.92;;;20.00;;
59824;SDS011;45703;50.898;6.054;2022-12-01T04:03:34;48.25;;;19.60;;
59824;SDS011;45703;50.898;6.054;2022-12-01T04:05:59;49.05;;;19.95;;
59824;SDS011;45703;50.898;6.054;2022-12-01T04:08:25;51.55;;;19.35;;
59824;SDS011;45703;50.898;6.054;2022-12-01T04:10:50;44.85;;;20.67;;
59824;SDS011;45703;50.898;6.054;2022-12-01T04:13:16;45.40;;;19.80;;
59824;SDS011;45703;50.898;6.054;2022-12-01T04:18:13;47.92;;;22.13;;
59824;SDS011;45703;50.898;6.054;2022-12-01T04:20:39;49.13;;;20.95;;
59824;SDS011;45703;50.898;6.054;2022-12-01T04:23:04;56.15;;;22.65;;
59824;SDS011;45703;50.898;6.054;2022-12-01T04:25:29;51.67;;;21.10;;
59824;SDS011;45703;50.898;6.054;2022-12-01T04:27:55;54.28;;;21.75;;
59824;SDS011;45703;50.898;6.054;2022-12-01T04:30:20;50.83;;;21.33;;
59824;SDS011;45703;50.898;6.054;2022-12-01T04:32:45;50.67;;;21.55;;
59824;SDS011;45703;50.898;6.054;2022-12-01T04:35:11;51.42;;;22.13;;
59824;SDS011;45703;50.898;6.054;2022-12-01T04:37:37;46.85;;;19.40;;
59824;SDS011;45703;50.898;6.054;2022-12-01T04:40:03;52.35;;;19.98;;
59824;SDS011;45703;50.898;6.054;2022-12-01T04:42:29;53.22;;;22.08;;
59824;SDS011;45703;50.898;6.054;2022-12-01T04:44:55;57.85;;;22.80;;
59824;SDS011;45703;50.898;6.054;2022-12-01T04:47:20;49.67;;;20.83;;
59824;SDS011;45703;50.898;6.054;2022-12-01T04:49:46;49.60;;;20.33;;
59824;SDS011;45703;50.898;6.054;2022-12-01T04:52:11;47.15;;;20.10;;
59824;SDS011;45703;50.898;6.054;2022-12-01T04:54:37;50.72;;;20.23;;
59824;SDS011;45703;50.898;6.054;2022-12-01T04:57:02;44.63;;;19.52;;
59824;SDS011;45703;50.898;6.054;2022-12-01T04:59:27;44.05;;;19.50;;
59824;SDS011;45703;50.898;6.054;2022-12-01T05:01:53;46.63;;;19.50;;
59824;SDS011;45703;50.898;6.054;2022-12-01T05:04:18;49.63;;;18.65;;
59824;SDS011;45703;50.898;6.054;2022-12-01T05:06:44;46.67;;;20.30;;
59824;SDS011;45703;50.898;6.054;2022-12-01T05:09:11;41.88;;;16.77;;
59824;SDS011;45703;50.898;6.054;2022-12-01T05:11:38;43.05;;;18.35;;
59824;SDS011;45703;50.898;6.054;2022-12-01T05:14:03;48.85;;;18.77;;
59824;SDS011;45703;50.898;6.054;2022-12-01T05:16:30;43.42;;;18.42;;
59824;SDS011;45703;50.898;6.054;2022-12-01T05:18:57;49.08;;;20.58;;
59824;SDS011;45703;50.898;6.054;2022-12-01T05:21:43;48.97;;;19.95;;
59824;SDS011;45703;50.898;6.054;2022-12-01T05:24:10;48.10;;;19.70;;
59824;SDS011;45703;50.898;6.054;2022-12-01T05:26:37;43.67;;;18.63;;
59824;SDS011;45703;50.898;6.054;2022-12-01T05:29:02;53.90;;;20.48;;
59824;SDS011;45703;50.898;6.054;2022-12-01T05:31:28;52.95;;;20.17;;
59824;SDS011;45703;50.898;6.054;2022-12-01T05:33:54;46.20;;;18.73;;
59824;SDS011;45703;50.898;6.054;2022-12-01T05:36:19;51.30;;;20.85;;
59824;SDS011;45703;50.898;6.054;2022-12-01T05:38:45;46.60;;;18.15;;
59824;SDS011;45703;50.898;6.054;2022-12-01T05:41:10;43.35;;;17.98;;
59824;SDS011;45703;50.898;6.054;2022-12-01T05:43:35;45.97;;;18.60;;
59824;SDS011;45703;50.898;6.054;2022-12-01T05:46:02;55.80;;;18.92;;
59824;SDS011;45703;50.898;6.054;2022-12-01T05:48:28;60.20;;;20.23;;
59824;SDS011;45703;50.898;6.054;2022-12-01T05:50:53;47.42;;;19.10;;
59824;SDS011;45703;50.898;6.054;2022-12-01T05:53:19;46.08;;;18.30;;
59824;SDS011;45703;50.898;6.054;2022-12-01T05:55:44;44.80;;;16.63;;
59824;SDS011;45703;50.898;6.054;2022-12-01T05:58:10;46.20;;;19.02;;
59824;SDS011;45703;50.898;6.054;2022-12-01T06:00:36;52.97;;;19.50;;
59824;SDS011;45703;50.898;6.054;2022-12-01T06:03:03;50.17;;;19.33;;
59824;SDS011;45703;50.898;6.054;2022-12-01T06:05:29;54.03;;;19.38;;
59824;SDS011;45703;50.898;6.054;2022-12-01T06:07:55;53.38;;;19.20;;
59824;SDS011;45703;50.898;6.054;2022-12-01T06:10:20;54.97;;;19.73;;
59824;SDS011;45703;50.898;6.054;2022-12-01T06:12:46;50.85;;;19.90;;
59824;SDS011;45703;50.898;6.054;2022-12-01T06:15:11;54.63;;;19.40;;
59824;SDS011;45703;50.898;6.054;2022-12-01T06:17:38;53.60;;;21.65;;
59824;SDS011;45703;50.898;6.054;2022-12-01T06:20:03;54.08;;;20.27;;
59824;SDS011;45703;50.898;6.054;2022-12-01T06:22:29;56.00;;;21.80;;
59824;SDS011;45703;50.898;6.054;2022-12-01T06:24:55;56.03;;;21.80;;
59824;SDS011;45703;50.898;6.054;2022-12-01T06:27:20;58.03;;;22.23;;
59824;SDS011;45703;50.898;6.054;2022-12-01T06:29:45;51.25;;;21.48;;
59824;SDS011;45703;50.898;6.054;2022-12-01T06:32:12;53.22;;;21.08;;
59824;SDS011;45703;50.898;6.054;2022-12-01T06:34:38;53.30;;;20.30;;
59824;SDS011;45703;50.898;6.054;2022-12-01T06:37:03;49.75;;;22.25;;
59824;SDS011;45703;50.898;6.054;2022-12-01T06:39:29;51.10;;;22.17;;
59824;SDS011;45703;50.898;6.054;2022-12-01T06:41:54;49.95;;;21.17;;
59824;SDS011;45703;50.898;6.054;2022-12-01T06:44:19;44.30;;;20.55;;
59824;SDS011;45703;50.898;6.054;2022-12-01T06:46:44;53.70;;;22.85;;
59824;SDS011;45703;50.898;6.054;2022-12-01T06:49:10;45.53;;;20.13;;
59824;SDS011;45703;50.898;6.054;2022-12-01T06:51:36;42.55;;;19.10;;
59824;SDS011;45703;50.898;6.054;2022-12-01T06:54:02;42.28;;;18.98;;
59824;SDS011;45703;50.898;6.054;2022-12-01T06:56:28;43.90;;;18.98;;
59824;SDS011;45703;50.898;6.054;2022-12-01T06:58:53;45.13;;;20.13;;
59824;SDS011;45703;50.898;6.054;2022-12-01T07:01:18;45.83;;;20.25;;
59824;SDS011;45703;50.898;6.054;2022-12-01T07:03:47;38.97;;;17.80;;
59824;SDS011;45703;50.898;6.054;2022-12-01T07:06:13;49.22;;;20.05;;
59824;SDS011;45703;50.898;6.054;2022-12-01T07:08:39;45.20;;;18.77;;
59824;SDS011;45703;50.898;6.054;2022-12-01T07:11:06;43.28;;;19.35;;
59824;SDS011;45703;50.898;6.054;2022-12-01T07:13:33;39.70;;;19.23;;
59824;SDS011;45703;50.898;6.054;2022-12-01T07:16:00;45.22;;;19.48;;
59824;SDS011;45703;50.898;6.054;2022-12-01T07:18:26;45.17;;;21.48;;
59824;SDS011;45703;50.898;6.054;2022-12-01T07:20:52;38.15;;;18.08;;
59824;SDS011;45703;50.898;6.054;2022-12-01T07:23:17;41.17;;;18.25;;
59824;SDS011;45703;50.898;6.054;2022-12-01T07:25:43;40.65;;;19.65;;
59824;SDS011;45703;50.898;6.054;2022-12-01T07:28:08;47.28;;;20.27;;
59824;SDS011;45703;50.898;6.054;2022-12-01T07:30:33;43.58;;;19.92;;
59824;SDS011;45703;50.898;6.054;2022-12-01T07:32:59;40.20;;;18.60;;
59824;SDS011;45703;50.898;6.054;2022-12-01T07:35:25;47.28;;;19.73;;
59824;SDS011;45703;50.898;6.054;2022-12-01T07:37:54;44.80;;;19.13;;
59824;SDS011;45703;50.898;6.054;2022-12-01T07:40:20;39.28;;;18.00;;
59824;SDS011;45703;50.898;6.054;2022-12-01T07:42:46;43.00;;;20.30;;
59824;SDS011;45703;50.898;6.054;2022-12-01T07:45:11;35.78;;;17.25;;
59824;SDS011;45703;50.898;6.054;2022-12-01T07:47:37;37.45;;;17.08;;
59824;SDS011;45703;50.898;6.054;2022-12-01T07:50:02;45.80;;;18.50;;
59824;SDS011;45703;50.898;6.054;2022-12-01T07:52:28;37.67;;;17.15;;
59824;SDS011;45703;50.898;6.054;2022-12-01T07:54:53;36.55;;;17.13;;
59824;SDS011;45703;50.898;6.054;2022-12-01T07:57:19;38.78;;;16.30;;
59824;SDS011;45703;50.898;6.054;2022-12-01T07:59:44;41.10;;;16.10;;
59824;SDS011;45703;50.898;6.054;2022-12-01T08:02:10;37.42;;;16.70;;
59824;SDS011;45703;50.898;6.054;2022-12-01T08:04:35;35.88;;;14.95;;
59824;SDS011;45703;50.898;6.054;2022-12-01T08:07:01;38.03;;;17.77;;
59824;SDS011;45703;50.898;6.054;2022-12-01T08:09:26;41.38;;;17.85;;
59824;SDS011;45703;50.898;6.054;2022-12-01T08:11:52;36.60;;;17.33;;
59824;SDS011;45703;50.898;6.054;2022-12-01T08:14:17;42.45;;;17.05;;
59824;SDS011;45703;50.898;6.054;2022-12-01T08:16:42;34.13;;;15.40;;
59824;SDS011;45703;50.898;6.054;2022-12-01T08:19:11;37.38;;;15.35;;
59824;SDS011;45703;50.898;6.054;2022-12-01T08:21:36;37.10;;;15.50;;
59824;SDS011;45703;50.898;6.054;2022-12-01T08:24:02;42.03;;;16.63;;
59824;SDS011;45703;50.898;6.054;2022-12-01T08:26:28;36.25;;;14.95;;
59824;SDS011;45703;50.898;6.054;2022-12-01T08:28:54;40.42;;;16.33;;
59824;SDS011;45703;50.898;6.054;2022-12-01T08:33:50;32.22;;;14.82;;
59824;SDS011;45703;50.898;6.054;2022-12-01T08:36:16;35.42;;;16.33;;
59824;SDS011;45703;50.898;6.054;2022-12-01T08:38:43;32.83;;;14.90;;
59824;SDS011;45703;50.898;6.054;2022-12-01T08:41:09;32.97;;;15.43;;
59824;SDS011;45703;50.898;6.054;2022-12-01T08:43:35;37.75;;;15.85;;
59824;SDS011;45703;50.898;6.054;2022-12-01T08:46:05;31.50;;;14.43;;
59824;SDS011;45703;50.898;6.054;2022-12-01T08:48:31;35.13;;;16.10;;
59824;SDS011;45703;50.898;6.054;2022-12-01T08:51:04;31.92;;;14.15;;
59824;SDS011;45703;50.898;6.054;2022-12-01T08:53:38;32.60;;;14.45;;
59824;SDS011;45703;50.898;6.054;2022-12-01T08:56:07;35.13;;;14.82;;
59824;SDS011;45703;50.898;6.054;2022-12-01T08:58:35;30.65;;;14.27;;
59824;SDS011;45703;50.898;6.054;2022-12-01T09:01:05;33.47;;;15.02;;
59824;SDS011;45703;50.898;6.054;2022-12-01T09:03:32;33.90;;;15.82;;
59824;SDS011;45703;50.898;6.054;2022-12-01T09:06:06;36.97;;;16.42;;
59824;SDS011;45703;50.898;6.054;2022-12-01T09:08:34;30.52;;;14.90;;
59824;SDS011;45703;50.898;6.054;2022-12-01T09:11:10;34.17;;;14.02;;
59824;SDS011;45703;50.898;6.054;2022-12-01T09:13:37;32.28;;;15.13;;
59824;SDS011;45703;50.898;6.054;2022-12-01T09:16:04;33.38;;;15.05;;
59824;SDS011;45703;50.898;6.054;2022-12-01T09:18:32;33.60;;;14.45;;
59824;SDS011;45703;50.898;6.054;2022-12-01T09:20:58;29.58;;;14.90;;
59824;SDS011;45703;50.898;6.054;2022-12-01T09:23:24;32.00;;;14.10;;
59824;SDS011;45703;50.898;6.054;2022-12-01T09:25:49;28.88;;;13.82;;
59824;SDS011;45703;50.898;6.054;2022-12-01T09:28:16;33.83;;;14.60;;
59824;SDS011;45703;50.898;6.054;2022-12-01T09:30:45;30.73;;;12.82;;
59824;SDS011;45703;50.898;6.054;2022-12-01T09:33:11;32.00;;;14.85;;
59824;SDS011;45703;50.898;6.054;2022-12-01T09:35:37;34.50;;;14.73;;
59824;SDS011;45703;50.898;6.054;2022-12-01T09:38:03;29.17;;;13.60;;
59824;SDS011;45703;50.898;6.054;2022-12-01T09:40:37;29.52;;;13.18;;
59824;SDS011;45703;50.898;6.054;2022-12-01T09:43:09;30.58;;;13.77;;
59824;SDS011;45703;50.898;6.054;2022-12-01T09:45:46;28.90;;;13.50;;
59824;SDS011;45703;50.898;6.054;2022-12-01T09:50:50;30.92;;;13.63;;
59824;SDS011;45703;50.898;6.054;2022-12-01T09:53:19;29.90;;;13.07;;
59824;SDS011;45703;50.898;6.054;2022-12-01T09:55:47;31.05;;;14.32;;
59824;SDS011;45703;50.898;6.054;2022-12-01T09:58:18;28.27;;;12.23;;
59824;SDS011;45703;50.898;6.054;2022-12-01T10:00:48;28.15;;;13.43;;
59824;SDS011;45703;50.898;6.054;2022-12-01T10:06:24;26.88;;;11.95;;
59824;SDS011;45703;50.898;6.054;2022-12-01T10:09:04;27.60;;;13.70;;
59824;SDS011;45703;50.898;6.054;2022-12-01T10:11:41;29.98;;;13.40;;
59824;SDS011;45703;50.898;6.054;2022-12-01T10:14:13;33.65;;;14.75;;
59824;SDS011;45703;50.898;6.054;2022-12-01T10:16:53;34.15;;;13.88;;
59824;SDS011;45703;50.898;6.054;2022-12-01T10:19:31;29.67;;;14.05;;
59824;SDS011;45703;50.898;6.054;2022-12-01T10:30:41;30.23;;;13.73;;
59824;SDS011;45703;50.898;6.054;2022-12-01T10:33:22;31.48;;;14.75;;
59824;SDS011;45703;50.898;6.054;2022-12-01T10:35:50;30.88;;;14.60;;
59824;SDS011;45703;50.898;6.054;2022-12-01T10:38:37;34.15;;;14.70;;
59824;SDS011;45703;50.898;6.054;2022-12-01T10:41:03;34.17;;;14.57;;
59824;SDS011;45703;50.898;6.054;2022-12-01T10:43:36;30.95;;;15.40;;
59824;SDS011;45703;50.898;6.054;2022-12-01T10:46:10;33.63;;;14.88;;
59824;SDS011;45703;50.898;6.054;2022-12-01T10:49:06;33.42;;;16.60;;
59824;SDS011;45703;50.898;6.054;2022-12-01T10:51:44;29.92;;;13.77;;
59824;SDS011;45703;50.898;6.054;2022-12-01T10:54:12;34.10;;;14.88;;
59824;SDS011;45703;50.898;6.054;2022-12-01T10:56:38;35.75;;;15.70;;
59824;SDS011;45703;50.898;6.054;2022-12-01T10:59:15;36.25;;;15.65;;
59824;SDS011;45703;50.898;6.054;2022-12-01T11:01:47;33.70;;;15.90;;
59824;SDS011;45703;50.898;6.054;2022-12-01T11:04:33;34.40;;;16.13;;
59824;SDS011;45703;50.898;6.054;2022-12-01T11:06:59;36.72;;;16.77;;
59824;SDS011;45703;50.898;6.054;2022-12-01T11:09:26;36.67;;;17.48;;
59824;SDS011;45703;50.898;6.054;2022-12-01T11:11:57;38.10;;;16.73;;
59824;SDS011;45703;50.898;6.054;2022-12-01T11:16:53;40.53;;;16.83;;
59824;SDS011;45703;50.898;6.054;2022-12-01T11:21:55;40.85;;;18.17;;
59824;SDS011;45703;50.898;6.054;2022-12-01T11:26:55;46.40;;;20.42;;
59824;SDS011;45703;50.898;6.054;2022-12-01T11:29:33;43.22;;;19.00;;
59824;SDS011;45703;50.898;6.054;2022-12-01T11:32:00;40.15;;;18.63;;
59824;SDS011;45703;50.898;6.054;2022-12-01T11:34:35;46.75;;;19.83;;
59824;SDS011;45703;50.898;6.054;2022-12-01T11:37:03;42.60;;;20.35;;
59824;SDS011;45703;50.898;6.054;2022-12-01T11:39:38;47.80;;;21.00;;
59824;SDS011;45703;50.898;6.054;2022-12-01T11:42:27;44.60;;;20.10;;
59824;SDS011;45703;50.898;6.054;2022-12-01T11:44:55;39.75;;;19.23;;
59824;SDS011;45703;50.898;6.054;2022-12-01T11:47:27;46.60;;;20.15;;
59824;SDS011;45703;50.898;6.054;2022-12-01T11:49:56;48.72;;;21.95;;
59824;SDS011;45703;50.898;6.054;2022-12-01T11:52:28;40.90;;;20.65;;
59824;SDS011;45703;50.898;6.054;2022-12-01T11:54:56;49.80;;;21.80;;
59824;SDS011;45703;50.898;6.054;2022-12-01T11:57:25;51.30;;;20.77;;
59824;SDS011;45703;50.898;6.054;2022-12-01T11:59:53;46.83;;;20.52;;
59824;SDS011;45703;50.898;6.054;2022-12-01T12:07:48;52.00;;;23.08;;
59824;SDS011;45703;50.898;6.054;2022-12-01T12:19:01;63.50;;;23.30;;
59824;SDS011;45703;50.898;6.054;2022-12-01T12:30:11;55.25;;;24.65;;
59824;SDS011;45703;50.898;6.054;2022-12-01T12:38:50;59.15;;;24.25;;
59824;SDS011;45703;50.898;6.054;2022-12-01T12:49:35;61.90;;;25.88;;
59824;SDS011;45703;50.898;6.054;2022-12-01T12:52:20;60.88;;;27.70;;
59824;SDS011;45703;50.898;6.054;2022-12-01T12:54:55;63.85;;;28.08;;
59824;SDS011;45703;50.898;6.054;2022-12-01T12:57:36;59.60;;;26.42;;
59824;SDS011;45703;50.898;6.054;2022-12-01T13:00:17;59.70;;;26.95;;
59824;SDS011;45703;50.898;6.054;2022-12-01T13:02:55;50.80;;;23.77;;
59824;SDS011;45703;50.898;6.054;2022-12-01T13:05:30;52.67;;;23.80;;
59824;SDS011;45703;50.898;6.054;2022-12-01T13:13:53;60.08;;;25.20;;
59824;SDS011;45703;50.898;6.054;2022-12-01T13:16:28;59.08;;;25.88;;
59824;SDS011;45703;50.898;6.054;2022-12-01T13:21:33;53.30;;;23.77;;
59824;SDS011;45703;50.898;6.054;2022-12-01T13:24:01;52.13;;;23.63;;
59824;SDS011;45703;50.898;6.054;2022-12-01T13:26:28;50.63;;;23.48;;
59824;SDS011;45703;50.898;6.054;2022-12-01T13:28:54;57.50;;;26.77;;
59824;SDS011;45703;50.898;6.054;2022-12-01T13:31:21;60.45;;;27.50;;
59824;SDS011;45703;50.898;6.054;2022-12-01T13:33:58;55.65;;;25.50;;
59824;SDS011;45703;50.898;6.054;2022-12-01T13:36:25;56.90;;;25.77;;
59824;SDS011;45703;50.898;6.054;2022-12-01T13:39:02;58.53;;;24.33;;
59824;SDS011;45703;50.898;6.054;2022-12-01T13:41:36;50.53;;;22.70;;
59824;SDS011;45703;50.898;6.054;2022-12-01T13:44:23;55.28;;;24.13;;
59824;SDS011;45703;50.898;6.054;2022-12-01T13:46:51;57.25;;;24.63;;
59824;SDS011;45703;50.898;6.054;2022-12-01T13:49:31;54.72;;;25.73;;
59824;SDS011;45703;50.898;6.054;2022-12-01T13:57:37;56.95;;;25.02;;
59824;SDS011;45703;50.898;6.054;2022-12-01T14:00:19;56.03;;;26.05;;
59824;SDS011;45703;50.898;6.054;2022-12-01T14:08:30;52.65;;;23.77;;
59824;SDS011;45703;50.898;6.054;2022-12-01T14:13:24;52.40;;;24.73;;
59824;SDS011;45703;50.898;6.054;2022-12-01T14:15:53;56.28;;;24.63;;
59824;SDS011;45703;50.898;6.054;2022-12-01T14:20:57;55.70;;;24.42;;
59824;SDS011;45703;50.898;6.054;2022-12-01T14:23:31;57.55;;;25.73;;
59824;SDS011;45703;50.898;6.054;2022-12-01T14:26:15;51.47;;;24.35;;
59824;SDS011;45703;50.898;6.054;2022-12-01T14:34:02;52.72;;;24.90;;
59824;SDS011;45703;50.898;6.054;2022-12-01T14:41:29;47.25;;;23.02;;
59824;SDS011;45703;50.898;6.054;2022-12-01T14:44:10;44.55;;;21.45;;
59824;SDS011;45703;50.898;6.054;2022-12-01T14:46:44;42.58;;;21.23;;
59824;SDS011;45703;50.898;6.054;2022-12-01T14:49:44;47.20;;;21.83;;
59824;SDS011;45703;50.898;6.054;2022-12-01T14:52:40;48.85;;;21.98;;
59824;SDS011;45703;50.898;6.054;2022-12-01T14:55:15;45.25;;;21.17;;
59824;SDS011;45703;50.898;6.054;2022-12-01T14:57:49;43.72;;;21.60;;
59824;SDS011;45703;50.898;6.054;2022-12-01T15:00:17;45.75;;;22.17;;
59824;SDS011;45703;50.898;6.054;2022-12-01T15:02:46;52.28;;;24.25;;
59824;SDS011;45703;50.898;6.054;2022-12-01T15:05:21;52.20;;;24.45;;
59824;SDS011;45703;50.898;6.054;2022-12-01T15:07:48;53.15;;;24.05;;
59824;SDS011;45703;50.898;6.054;2022-12-01T15:12:41;54.30;;;24.30;;
59824;SDS011;45703;50.898;6.054;2022-12-01T15:15:23;48.80;;;23.98;;
59824;SDS011;45703;50.898;6.054;2022-12-01T15:17:50;50.22;;;23.48;;
59824;SDS011;45703;50.898;6.054;2022-12-01T15:20:27;47.67;;;25.20;;
59824;SDS011;45703;50.898;6.054;2022-12-01T15:22:59;48.35;;;22.85;;
59824;SDS011;45703;50.898;6.054;2022-12-01T15:25:30;47.80;;;24.52;;
59824;SDS011;45703;50.898;6.054;2022-12-01T15:28:21;55.95;;;26.83;;
59824;SDS011;45703;50.898;6.054;2022-12-01T15:30:55;45.80;;;22.83;;
59824;SDS011;45703;50.898;6.054;2022-12-01T15:35:59;45.83;;;23.67;;
59824;SDS011;45703;50.898;6.054;2022-12-01T15:38:30;42.58;;;22.40;;
59824;SDS011;45703;50.898;6.054;2022-12-01T15:40:57;45.08;;;22.42;;
59824;SDS011;45703;50.898;6.054;2022-12-01T15:43:27;47.60;;;23.30;;
59824;SDS011;45703;50.898;6.054;2022-12-01T15:46:25;46.67;;;22.88;;
59824;SDS011;45703;50.898;6.054;2022-12-01T15:48:50;44.42;;;21.80;;
59824;SDS011;45703;50.898;6.054;2022-12-01T15:51:33;44.80;;;21.33;;
59824;SDS011;45703;50.898;6.054;2022-12-01T15:53:59;45.95;;;21.58;;
59824;SDS011;45703;50.898;6.054;2022-12-01T16:01:46;41.55;;;21.40;;
59824;SDS011;45703;50.898;6.054;2022-12-01T16:04:16;49.13;;;21.70;;
59824;SDS011;45703;50.898;6.054;2022-12-01T16:06:59;44.92;;;21.30;;
59824;SDS011;45703;50.898;6.054;2022-12-01T16:09:35;46.28;;;22.00;;
59824;SDS011;45703;50.898;6.054;2022-12-01T16:17:16;47.13;;;21.65;;
59824;SDS011;45703;50.898;6.054;2022-12-01T16:19:42;40.72;;;21.90;;
59824;SDS011;45703;50.898;6.054;2022-12-01T16:24:35;43.00;;;21.45;;
59824;SDS011;45703;50.898;6.054;2022-12-01T16:27:15;46.08;;;20.42;;
59824;SDS011;45703;50.898;6.054;2022-12-01T16:29:47;43.08;;;20.95;;
59824;SDS011;45703;50.898;6.054;2022-12-01T16:32:16;44.85;;;20.30;;
59824;SDS011;45703;50.898;6.054;2022-12-01T16:34:44;47.63;;;22.58;;
59824;SDS011;45703;50.898;6.054;2022-12-01T16:37:11;44.20;;;22.75;;
59824;SDS011;45703;50.898;6.054;2022-12-01T16:39:37;44.75;;;22.05;;
59824;SDS011;45703;50.898;6.054;2022-12-01T16:42:02;43.45;;;22.05;;
59824;SDS011;45703;50.898;6.054;2022-12-01T16:44:27;47.22;;;24.15;;
59824;SDS011;45703;50.898;6.054;2022-12-01T16:46:53;44.88;;;22.67;;
59824;SDS011;45703;50.898;6.054;2022-12-01T16:49:18;44.50;;;22.48;;
59824;SDS011;45703;50.898;6.054;2022-12-01T16:51:44;48.20;;;22.27;;
59824;SDS011;45703;50.898;6.054;2022-12-01T16:54:09;48.72;;;22.88;;
59824;SDS011;45703;50.898;6.054;2022-12-01T16:56:34;46.90;;;23.73;;
59824;SDS011;45703;50.898;6.054;2022-12-01T16:58:59;43.47;;;22.83;;
59824;SDS011;45703;50.898;6.054;2022-12-01T17:01:26;47.10;;;22.88;;